Time,TemperatureF,DewpointF,PressureIn,WindDirection,WindDirectionDegrees,WindSpeedMPH,WindSpeedGustMPH,Humidity,HourlyPrecipIn,Conditions,Clouds,dailyrainin,SoftwareType,DateUTC
2013-01-12 00:00:00,15.5,11.0,30.31,NE,46,0.0,0.0,82,0.00,,,0.00,Wunderground v.1.15,2013-01-12 08:00:00,
2013-01-12 00:06:00,15.3,10.8,30.30,NE,46,0.0,0.0,82,0.00,,,0.00,Wunderground v.1.15,2013-01-12 08:06:00,
2013-01-12 00:12:00,15.1,10.6,30.31,NE,46,0.0,0.0,82,0.00,,,0.00,Wunderground v.1.15,2013-01-12 08:12:00,
2013-01-12 00:17:00,15.0,10.8,30.31,NE,46,0.0,0.0,83,0.00,,,0.00,Wunderground v.1.15,2013-01-12 08:17:00,
2013-01-12 00:24:00,14.8,10.6,30.31,NE,46,0.0,0.0,83,0.00,,,0.00,Wunderground v.1.15,2013-01-12 08:24:00,
2013-01-12 00:30:00,14.6,10.4,30.31,NE,46,0.0,0.0,83,0.00,,,0.00,Wunderground v.1.15,2013-01-12 08:30:00,
2013-01-12 00:35:00,14.4,10.7,30.31,NE,46,0.0,0.0,85,0.00,,,0.00,Wunderground v.1.15,2013-01-12 08:35:00,
2013-01-12 00:41:00,14.2,10.5,30.31,NE,46,0.0,0.0,85,0.00,,,0.00,Wunderground v.1.15,2013-01-12 08:41:00,
2013-01-12 00:48:00,14.0,10.3,30.32,NE,46,0.0,0.0,85,0.00,,,0.00,Wunderground v.1.15,2013-01-12 08:48:00,
2013-01-12 00:54:00,13.8,10.1,30.32,NE,46,0.0,0.0,85,0.00,,,0.00,Wunderground v.1.15,2013-01-12 08:54:00,
2013-01-12 01:00:00,13.7,10.0,30.31,NE,46,0.0,0.0,85,0.00,,,0.00,Wunderground v.1.15,2013-01-12 09:00:00,
2013-01-12 01:06:00,13.5,9.6,30.31,NE,46,0.0,0.0,84,0.00,,,0.00,Wunderground v.1.15,2013-01-12 09:06:00,
2013-01-12 01:12:00,13.7,9.5,30.31,NE,46,1.0,1.0,83,0.00,,,0.00,Wunderground v.1.15,2013-01-12 09:12:00,
2013-01-12 01:17:00,13.9,10.0,30.31,NE,46,1.0,1.0,84,0.00,,,0.00,Wunderground v.1.15,2013-01-12 09:17:00,
2013-01-12 01:23:00,13.9,10.0,30.32,NE,46,0.0,0.0,84,0.00,,,0.00,Wunderground v.1.15,2013-01-12 09:23:00,
2013-01-12 01:30:00,13.8,9.6,30.32,NE,46,0.0,0.0,83,0.00,,,0.00,Wunderground v.1.15,2013-01-12 09:30:00,
2013-01-12 01:36:00,13.7,9.5,30.32,NE,46,0.0,0.0,83,0.00,,,0.00,Wunderground v.1.15,2013-01-12 09:36:00,
2013-01-12 01:41:00,13.6,9.4,30.32,NE,46,0.0,0.0,83,0.00,,,0.00,Wunderground v.1.15,2013-01-12 09:41:00,
2013-01-12 01:47:00,13.5,9.3,30.32,NE,46,0.0,1.0,83,0.00,,,0.00,Wunderground v.1.15,2013-01-12 09:47:00,
2013-01-12 01:53:00,13.5,9.3,30.33,NE,46,1.0,1.0,83,0.00,,,0.00,Wunderground v.1.15,2013-01-12 09:53:00,
2013-01-12 02:02:00,13.7,9.5,30.33,NE,46,2.0,2.0,83,0.00,,,0.00,Wunderground v.1.15,2013-01-12 10:02:00,
2013-01-12 02:08:00,14.0,9.5,30.33,NE,46,2.0,2.0,82,0.00,,,0.00,Wunderground v.1.15,2013-01-12 10:08:00,
2013-01-12 02:13:00,14.0,9.2,30.33,NE,46,0.0,1.0,81,0.00,,,0.00,Wunderground v.1.15,2013-01-12 10:13:00,
2013-01-12 02:20:00,14.0,9.2,30.33,NE,46,0.0,1.0,81,0.00,,,0.00,Wunderground v.1.15,2013-01-12 10:20:00,
2013-01-12 02:26:00,13.7,9.2,30.33,NE,46,0.0,0.0,82,0.00,,,0.00,Wunderground v.1.15,2013-01-12 10:26:00,
2013-01-12 02:32:00,13.5,9.3,30.33,NE,46,0.0,1.0,83,0.00,,,0.00,Wunderground v.1.15,2013-01-12 10:32:00,
2013-01-12 02:37:00,13.2,9.0,30.33,NE,46,0.0,1.0,83,0.00,,,0.00,Wunderground v.1.15,2013-01-12 10:37:00,
2013-01-12 02:44:00,13.1,8.9,30.32,NE,46,0.0,0.0,83,0.00,,,0.00,Wunderground v.1.15,2013-01-12 10:44:00,
2013-01-12 02:50:00,12.9,9.0,30.32,NE,46,0.0,0.0,84,0.00,,,0.00,Wunderground v.1.15,2013-01-12 10:50:00,
2013-01-12 02:55:00,12.7,8.8,30.32,NE,46,0.0,0.0,84,0.00,,,0.00,Wunderground v.1.15,2013-01-12 10:55:00,
2013-01-12 03:01:00,12.5,8.6,30.33,NE,46,0.0,0.0,84,0.00,,,0.00,Wunderground v.1.15,2013-01-12 11:01:00,
2013-01-12 03:08:00,12.3,8.4,30.33,NE,46,0.0,0.0,84,0.00,,,0.00,Wunderground v.1.15,2013-01-12 11:08:00,
2013-01-12 03:14:00,11.9,8.3,30.33,NE,46,0.0,0.0,85,0.00,,,0.00,Wunderground v.1.15,2013-01-12 11:14:00,
2013-01-12 03:19:00,11.7,8.1,30.32,NE,46,0.0,0.0,85,0.00,,,0.00,Wunderground v.1.15,2013-01-12 11:19:00,
2013-01-12 03:26:00,11.6,8.2,30.33,NE,46,0.0,0.0,86,0.00,,,0.00,Wunderground v.1.15,2013-01-12 11:26:00,
2013-01-12 03:32:00,11.6,8.2,30.32,NE,46,0.0,0.0,86,0.00,,,0.00,Wunderground v.1.15,2013-01-12 11:32:00,
2013-01-12 03:37:00,11.4,7.8,30.32,NE,46,0.0,0.0,85,0.00,,,0.00,Wunderground v.1.15,2013-01-12 11:37:00,
2013-01-12 03:43:00,11.1,7.5,30.32,NE,46,0.0,0.0,85,0.00,,,0.00,Wunderground v.1.15,2013-01-12 11:43:00,
2013-01-12 03:50:00,11.0,7.6,30.32,NE,46,0.0,0.0,86,0.00,,,0.00,Wunderground v.1.15,2013-01-12 11:50:00,
2013-01-12 03:56:00,10.9,7.5,30.32,NE,46,0.0,0.0,86,0.00,,,0.00,Wunderground v.1.15,2013-01-12 11:56:00,
2013-01-12 04:02:00,10.8,7.4,30.31,NE,46,0.0,0.0,86,0.00,,,0.00,Wunderground v.1.15,2013-01-12 12:02:00,
2013-01-12 04:07:00,10.6,7.2,30.31,NE,46,0.0,0.0,86,0.00,,,0.00,Wunderground v.1.15,2013-01-12 12:07:00,
2013-01-12 04:14:00,10.5,7.1,30.31,NE,46,0.0,0.0,86,0.00,,,0.00,Wunderground v.1.15,2013-01-12 12:14:00,
2013-01-12 04:20:00,10.4,7.3,30.31,NE,46,0.0,0.0,87,0.00,,,0.00,Wunderground v.1.15,2013-01-12 12:20:00,
2013-01-12 04:25:00,10.3,7.2,30.31,NE,46,0.0,0.0,87,0.00,,,0.00,Wunderground v.1.15,2013-01-12 12:25:00,
2013-01-12 04:31:00,10.3,7.2,30.32,NE,46,0.0,0.0,87,0.00,,,0.00,Wunderground v.1.15,2013-01-12 12:31:00,
2013-01-12 04:38:00,10.2,7.1,30.31,NE,46,0.0,0.0,87,0.00,,,0.00,Wunderground v.1.15,2013-01-12 12:38:00,
2013-01-12 04:44:00,10.1,7.3,30.31,NE,46,0.0,0.0,88,0.00,,,0.00,Wunderground v.1.15,2013-01-12 12:44:00,
2013-01-12 04:49:00,10.0,7.2,30.32,NE,46,0.0,0.0,88,0.00,,,0.00,Wunderground v.1.15,2013-01-12 12:49:00,
2013-01-12 04:56:00,9.9,7.1,30.32,NE,46,0.0,0.0,88,0.00,,,0.00,Wunderground v.1.15,2013-01-12 12:56:00,
2013-01-12 05:02:00,9.9,7.1,30.32,NE,46,0.0,0.0,88,0.00,,,0.00,Wunderground v.1.15,2013-01-12 13:02:00,
2013-01-12 05:07:00,9.9,7.1,30.31,NE,46,0.0,0.0,88,0.00,,,0.00,Wunderground v.1.15,2013-01-12 13:07:00,
2013-01-12 05:13:00,9.9,7.1,30.31,NE,46,0.0,0.0,88,0.00,,,0.00,Wunderground v.1.15,2013-01-12 13:13:00,
2013-01-12 05:20:00,9.8,7.0,30.32,NE,46,0.0,0.0,88,0.00,,,0.00,Wunderground v.1.15,2013-01-12 13:20:00,
2013-01-12 05:26:00,9.7,6.9,30.32,NE,46,0.0,0.0,88,0.00,,,0.00,Wunderground v.1.15,2013-01-12 13:26:00,
2013-01-12 05:31:00,9.5,6.7,30.32,NE,46,0.0,0.0,88,0.00,,,0.00,Wunderground v.1.15,2013-01-12 13:31:00,
2013-01-12 05:38:00,9.4,6.6,30.31,NE,46,0.0,0.0,88,0.00,,,0.00,Wunderground v.1.15,2013-01-12 13:38:00,
2013-01-12 05:44:00,9.4,6.6,30.31,NE,46,0.0,0.0,88,0.00,,,0.00,Wunderground v.1.15,2013-01-12 13:44:00,
2013-01-12 05:49:00,9.5,6.9,30.32,NE,46,0.0,0.0,89,0.00,,,0.00,Wunderground v.1.15,2013-01-12 13:49:00,
2013-01-12 05:55:00,9.5,6.7,30.32,NE,46,0.0,0.0,88,0.00,,,0.00,Wunderground v.1.15,2013-01-12 13:55:00,
2013-01-12 06:02:00,9.3,6.5,30.32,NE,46,0.0,0.0,88,0.00,,,0.00,Wunderground v.1.15,2013-01-12 14:02:00,
2013-01-12 06:08:00,9.4,6.6,30.33,NE,46,0.0,0.0,88,0.00,,,0.00,Wunderground v.1.15,2013-01-12 14:08:00,
2013-01-12 06:13:00,9.5,6.7,30.33,NE,46,0.0,0.0,88,0.00,,,0.00,Wunderground v.1.15,2013-01-12 14:13:00,
2013-01-12 06:20:00,9.5,6.7,30.33,NE,46,0.0,0.0,88,0.00,,,0.00,Wunderground v.1.15,2013-01-12 14:20:00,
2013-01-12 06:26:00,9.7,6.9,30.33,NE,46,0.0,0.0,88,0.00,,,0.00,Wunderground v.1.15,2013-01-12 14:26:00,
2013-01-12 06:32:00,10.0,7.2,30.33,NE,46,0.0,0.0,88,0.00,,,0.00,Wunderground v.1.15,2013-01-12 14:32:00,
2013-01-12 06:37:00,10.3,6.9,30.34,NE,46,0.0,0.0,86,0.00,,,0.00,Wunderground v.1.15,2013-01-12 14:37:00,
2013-01-12 06:44:00,10.3,6.7,30.34,NE,46,1.0,3.0,85,0.00,,,0.00,Wunderground v.1.15,2013-01-12 14:44:00,
2013-01-12 06:50:00,10.6,7.2,30.34,NE,46,1.0,3.0,86,0.00,,,0.00,Wunderground v.1.15,2013-01-12 14:50:00,
2013-01-12 06:55:00,10.9,7.3,30.34,NE,47,1.0,2.0,85,0.00,,,0.00,Wunderground v.1.15,2013-01-12 14:55:00,
2013-01-12 07:01:00,11.0,7.1,30.34,NE,46,1.0,1.0,84,0.00,,,0.00,Wunderground v.1.15,2013-01-12 15:01:00,
2013-01-12 07:08:00,11.1,7.2,30.34,NE,46,1.0,1.0,84,0.00,,,0.00,Wunderground v.1.15,2013-01-12 15:08:00,
2013-01-12 07:14:00,11.2,7.3,30.34,NE,46,1.0,1.0,84,0.00,,,0.00,Wunderground v.1.15,2013-01-12 15:14:00,
2013-01-12 07:19:00,11.2,7.3,30.34,NE,46,1.0,2.0,84,0.00,,,0.00,Wunderground v.1.15,2013-01-12 15:19:00,
2013-01-12 07:25:00,11.2,7.3,30.34,NE,46,1.0,2.0,84,0.00,,,0.00,Wunderground v.1.15,2013-01-12 15:25:00,
2013-01-12 07:32:00,11.1,7.2,30.35,NE,47,0.0,0.0,84,0.00,,,0.00,Wunderground v.1.15,2013-01-12 15:32:00,
2013-01-12 07:38:00,11.0,7.1,30.35,NE,46,0.0,1.0,84,0.00,,,0.00,Wunderground v.1.15,2013-01-12 15:38:00,
2013-01-12 07:43:00,10.9,7.0,30.35,NE,46,1.0,3.0,84,0.00,,,0.00,Wunderground v.1.15,2013-01-12 15:43:00,
2013-01-12 07:50:00,10.9,7.0,30.34,NE,46,1.0,1.0,84,0.00,,,0.00,Wunderground v.1.15,2013-01-12 15:50:00,
2013-01-12 07:56:00,10.9,7.0,30.34,NE,46,0.0,1.0,84,0.00,,,0.00,Wunderground v.1.15,2013-01-12 15:56:00,
2013-01-12 08:02:00,11.0,7.4,30.35,NE,46,0.0,0.0,85,0.00,,,0.00,Wunderground v.1.15,2013-01-12 16:02:00,
2013-01-12 08:07:00,11.3,7.7,30.35,NE,46,0.0,1.0,85,0.00,,,0.00,Wunderground v.1.15,2013-01-12 16:07:00,
2013-01-12 08:14:00,11.7,7.8,30.35,NE,47,0.0,2.0,84,0.00,,,0.00,Wunderground v.1.15,2013-01-12 16:14:00,
2013-01-12 08:20:00,11.6,7.4,30.35,NE,46,1.0,2.0,83,0.00,,,0.00,Wunderground v.1.15,2013-01-12 16:20:00,
2013-01-12 08:25:00,11.4,7.2,30.35,NE,46,1.0,2.0,83,0.00,,,0.00,Wunderground v.1.15,2013-01-12 16:25:00,
2013-01-12 08:31:00,11.4,7.2,30.35,NE,46,2.0,2.0,83,0.00,,,0.00,Wunderground v.1.15,2013-01-12 16:31:00,
2013-01-12 08:38:00,11.6,7.4,30.35,NE,46,2.0,3.0,83,0.00,,,0.00,Wunderground v.1.15,2013-01-12 16:38:00,
2013-01-12 08:44:00,11.8,7.9,30.36,NE,46,2.0,2.0,84,0.00,,,0.00,Wunderground v.1.15,2013-01-12 16:44:00,
2013-01-12 08:49:00,12.7,9.0,30.36,NE,46,1.0,2.0,85,0.00,,,0.00,Wunderground v.1.15,2013-01-12 16:49:00,
2013-01-12 08:56:00,14.0,9.5,30.36,NE,46,0.0,2.0,82,0.00,,,0.00,Wunderground v.1.15,2013-01-12 16:56:00,
2013-01-12 09:02:00,14.7,9.6,30.36,NE,46,1.0,1.0,80,0.00,,,0.00,Wunderground v.1.15,2013-01-12 17:02:00,
2013-01-12 09:07:00,15.3,10.2,30.36,NE,46,1.0,1.0,80,0.00,,,0.00,Wunderground v.1.15,2013-01-12 17:07:00,
2013-01-12 09:13:00,15.6,10.0,30.36,NE,47,1.0,3.0,78,0.00,,,0.00,Wunderground v.1.15,2013-01-12 17:13:00,
2013-01-12 09:20:00,15.0,9.1,30.36,ENE,60,3.0,4.0,77,0.00,,,0.00,Wunderground v.1.15,2013-01-12 17:20:00,
2013-01-12 09:26:00,15.4,9.8,30.36,ENE,75,3.0,3.0,78,0.00,,,0.00,Wunderground v.1.15,2013-01-12 17:26:00,
2013-01-12 09:31:00,16.2,10.5,30.36,ENE,75,2.0,2.0,78,0.00,,,0.00,Wunderground v.1.15,2013-01-12 17:31:00,
2013-01-12 09:38:00,17.0,10.7,30.36,ENE,75,1.0,2.0,76,0.00,,,0.00,Wunderground v.1.15,2013-01-12 17:38:00,
2013-01-12 09:44:00,17.4,11.7,30.36,ENE,75,1.0,1.0,78,0.00,,,0.00,Wunderground v.1.15,2013-01-12 17:44:00,
2013-01-12 09:49:00,18.0,12.0,30.36,ENE,75,0.0,2.0,77,0.00,,,0.00,Wunderground v.1.15,2013-01-12 17:49:00,
2013-01-12 09:55:00,18.1,11.5,30.36,ENE,75,1.0,3.0,75,0.00,,,0.00,Wunderground v.1.15,2013-01-12 17:55:00,
2013-01-12 10:02:00,18.1,11.5,30.36,ENE,75,2.0,2.0,75,0.00,,,0.00,Wunderground v.1.15,2013-01-12 18:02:00,
2013-01-12 10:08:00,18.3,11.7,30.36,ENE,75,3.0,3.0,75,0.00,,,0.00,Wunderground v.1.15,2013-01-12 18:08:00,
2013-01-12 10:13:00,18.9,12.6,30.36,East,81,2.0,5.0,76,0.00,,,0.00,Wunderground v.1.15,2013-01-12 18:13:00,
2013-01-12 10:20:00,19.7,12.8,30.36,East,83,1.0,5.0,74,0.00,,,0.00,Wunderground v.1.15,2013-01-12 18:20:00,
2013-01-12 10:26:00,20.2,13.5,30.36,East,83,1.0,2.0,75,0.00,,,0.00,Wunderground v.1.15,2013-01-12 18:26:00,
2013-01-12 10:31:00,21.2,14.5,30.36,East,83,1.0,1.0,75,0.00,,,0.00,Wunderground v.1.15,2013-01-12 18:31:00,
2013-01-12 10:37:00,21.7,13.7,30.35,East,83,1.0,3.0,71,0.00,,,0.00,Wunderground v.1.15,2013-01-12 18:37:00,
2013-01-12 10:44:00,21.7,13.1,30.35,East,83,1.0,1.0,69,0.00,,,0.00,Wunderground v.1.15,2013-01-12 18:44:00,
2013-01-12 10:50:00,21.5,13.2,30.35,East,83,1.0,1.0,70,0.00,,,0.00,Wunderground v.1.15,2013-01-12 18:50:00,
2013-01-12 10:55:00,21.6,13.3,30.35,East,83,0.0,1.0,70,0.00,,,0.00,Wunderground v.1.15,2013-01-12 18:55:00,
2013-01-12 11:02:00,21.8,12.9,30.35,East,83,0.0,1.0,68,0.00,,,0.00,Wunderground v.1.15,2013-01-12 19:02:00,
2013-01-12 11:08:00,21.8,13.5,30.34,East,83,0.0,1.0,70,0.00,,,0.00,Wunderground v.1.15,2013-01-12 19:08:00,
2013-01-12 11:14:00,22.1,13.5,30.34,East,83,0.0,2.0,69,0.00,,,0.00,Wunderground v.1.15,2013-01-12 19:14:00,
2013-01-12 11:19:00,22.1,13.5,30.34,East,83,1.0,2.0,69,0.00,,,0.00,Wunderground v.1.15,2013-01-12 19:19:00,
2013-01-12 11:26:00,22.4,13.4,30.34,East,83,0.0,1.0,68,0.00,,,0.00,Wunderground v.1.15,2013-01-12 19:26:00,
2013-01-12 11:32:00,23.1,13.8,30.34,East,83,0.0,0.0,67,0.00,,,0.00,Wunderground v.1.15,2013-01-12 19:32:00,
2013-01-12 11:37:00,23.3,14.0,30.33,East,83,1.0,2.0,67,0.00,,,0.00,Wunderground v.1.15,2013-01-12 19:37:00,
2013-01-12 11:43:00,23.3,14.0,30.33,East,83,1.0,1.0,67,0.00,,,0.00,Wunderground v.1.15,2013-01-12 19:43:00,
2013-01-12 11:50:00,23.4,13.4,30.33,East,83,1.0,1.0,65,0.00,,,0.00,Wunderground v.1.15,2013-01-12 19:50:00,
2013-01-12 11:56:00,23.4,13.0,30.33,East,83,0.0,0.0,64,0.00,,,0.00,Wunderground v.1.15,2013-01-12 19:56:00,
2013-01-12 12:01:00,23.7,13.6,30.33,East,83,0.0,1.0,65,0.00,,,0.00,Wunderground v.1.15,2013-01-12 20:01:00,
2013-01-12 12:07:00,24.0,13.2,30.33,East,83,1.0,3.0,63,0.00,,,0.00,Wunderground v.1.15,2013-01-12 20:07:00,
2013-01-12 12:14:00,24.2,13.4,30.33,East,83,2.0,2.0,63,0.00,,,0.00,Wunderground v.1.15,2013-01-12 20:14:00,
2013-01-12 12:20:00,25.1,13.2,30.33,East,83,1.0,2.0,60,0.00,,,0.00,Wunderground v.1.15,2013-01-12 20:20:00,
2013-01-12 12:25:00,25.8,13.4,30.33,East,83,0.0,2.0,59,0.00,,,0.00,Wunderground v.1.15,2013-01-12 20:25:00,
2013-01-12 12:32:00,25.6,14.4,30.33,East,83,1.0,6.0,62,0.00,,,0.00,Wunderground v.1.15,2013-01-12 20:32:00,
2013-01-12 12:38:00,25.1,14.6,30.34,East,83,3.0,6.0,64,0.00,,,0.00,Wunderground v.1.15,2013-01-12 20:38:00,
2013-01-12 12:43:00,25.4,14.5,30.34,East,83,3.0,6.0,63,0.00,,,0.00,Wunderground v.1.15,2013-01-12 20:43:00,
2013-01-12 12:49:00,25.4,14.9,30.34,East,83,3.0,6.0,64,0.00,,,0.00,Wunderground v.1.15,2013-01-12 20:49:00,
2013-01-12 12:56:00,25.3,14.5,30.34,East,83,3.0,5.0,63,0.00,,,0.00,Wunderground v.1.15,2013-01-12 20:56:00,
2013-01-12 13:02:00,25.3,14.5,30.34,East,83,3.0,5.0,63,0.00,,,0.00,Wunderground v.1.15,2013-01-12 21:02:00,
2013-01-12 13:07:00,25.6,14.0,30.34,East,83,4.0,5.0,61,0.00,,,0.00,Wunderground v.1.15,2013-01-12 21:07:00,
2013-01-12 13:14:00,26.0,14.4,30.34,East,83,2.0,5.0,61,0.00,,,0.00,Wunderground v.1.15,2013-01-12 21:14:00,
2013-01-12 13:20:00,26.2,14.2,30.34,East,83,2.0,5.0,60,0.00,,,0.00,Wunderground v.1.15,2013-01-12 21:20:00,
2013-01-12 13:26:00,26.3,14.3,30.34,East,83,3.0,6.0,60,0.00,,,0.00,Wunderground v.1.15,2013-01-12 21:26:00,
2013-01-12 13:31:00,26.8,14.0,30.34,East,83,2.0,2.0,58,0.00,,,0.00,Wunderground v.1.15,2013-01-12 21:31:00,
2013-01-12 13:38:00,26.5,13.3,30.34,East,83,3.0,6.0,57,0.00,,,0.00,Wunderground v.1.15,2013-01-12 21:38:00,
2013-01-12 13:44:00,26.6,13.4,30.34,East,83,3.0,5.0,57,0.00,,,0.00,Wunderground v.1.15,2013-01-12 21:44:00,
2013-01-12 13:49:00,27.2,13.6,30.34,East,83,2.0,5.0,56,0.00,,,0.00,Wunderground v.1.15,2013-01-12 21:49:00,
2013-01-12 13:55:00,27.9,13.8,30.35,East,83,1.0,2.0,55,0.00,,,0.00,Wunderground v.1.15,2013-01-12 21:55:00,
2013-01-12 14:02:00,27.7,13.6,30.35,East,83,2.0,2.0,55,0.00,,,0.00,Wunderground v.1.15,2013-01-12 22:02:00,
2013-01-12 14:08:00,27.6,13.5,30.35,East,83,3.0,3.0,55,0.00,,,0.00,Wunderground v.1.15,2013-01-12 22:08:00,
2013-01-12 14:13:00,27.9,13.8,30.35,East,83,2.0,2.0,55,0.00,,,0.00,Wunderground v.1.15,2013-01-12 22:13:00,
2013-01-12 14:19:00,28.3,14.2,30.36,East,83,1.0,2.0,55,0.00,,,0.00,Wunderground v.1.15,2013-01-12 22:19:00,
2013-01-12 14:26:00,28.6,14.0,30.36,East,83,1.0,3.0,54,0.00,,,0.00,Wunderground v.1.15,2013-01-12 22:26:00,
2013-01-12 14:32:00,28.6,14.0,30.36,East,83,2.0,2.0,54,0.00,,,0.00,Wunderground v.1.15,2013-01-12 22:32:00,
2013-01-12 14:37:00,28.7,14.1,30.36,East,83,4.0,6.0,54,0.00,,,0.00,Wunderground v.1.15,2013-01-12 22:37:00,
2013-01-12 14:44:00,28.4,14.3,30.36,East,83,2.0,3.0,55,0.00,,,0.00,Wunderground v.1.15,2013-01-12 22:44:00,
2013-01-12 14:50:00,28.0,13.1,30.37,East,83,2.0,5.0,53,0.00,,,0.00,Wunderground v.1.15,2013-01-12 22:50:00,
2013-01-12 14:56:00,28.2,13.2,30.37,East,83,2.0,2.0,53,0.00,,,0.00,Wunderground v.1.15,2013-01-12 22:56:00,
2013-01-12 15:01:00,28.6,14.0,30.37,East,83,1.0,1.0,54,0.00,,,0.00,Wunderground v.1.15,2013-01-12 23:01:00,
2013-01-12 15:08:00,28.9,13.9,30.37,East,83,1.0,1.0,53,0.00,,,0.00,Wunderground v.1.15,2013-01-12 23:08:00,
2013-01-12 15:14:00,28.7,12.8,30.37,East,83,1.0,1.0,51,0.00,,,0.00,Wunderground v.1.15,2013-01-12 23:14:00,
2013-01-12 15:19:00,29.1,12.3,30.37,East,83,1.0,2.0,49,0.00,,,0.00,Wunderground v.1.15,2013-01-12 23:19:00,
2013-01-12 15:25:00,29.2,10.5,30.37,East,83,1.0,1.0,45,0.00,,,0.00,Wunderground v.1.15,2013-01-12 23:25:00,
2013-01-12 15:32:00,29.4,10.6,30.37,East,83,1.0,1.0,45,0.00,,,0.00,Wunderground v.1.15,2013-01-12 23:32:00,
2013-01-12 15:38:00,29.0,10.8,30.37,East,83,1.0,2.0,46,0.00,,,0.00,Wunderground v.1.15,2013-01-12 23:38:00,
2013-01-12 15:43:00,28.9,10.7,30.37,East,83,0.0,2.0,46,0.00,,,0.00,Wunderground v.1.15,2013-01-12 23:43:00,
2013-01-12 15:49:00,28.8,11.6,30.37,East,83,1.0,2.0,48,0.00,,,0.00,Wunderground v.1.15,2013-01-12 23:49:00,
2013-01-12 15:55:00,28.8,11.6,30.37,East,83,0.0,1.0,48,0.00,,,0.00,Wunderground v.1.15,2013-01-12 23:55:00,
2013-01-12 16:02:00,28.9,11.6,30.37,East,83,0.0,2.0,48,0.00,,,0.00,Wunderground v.1.15,2013-01-13 00:02:00,
2013-01-12 16:08:00,28.5,11.7,30.37,East,83,1.0,2.0,49,0.00,,,0.00,Wunderground v.1.15,2013-01-13 00:08:00,
2013-01-12 16:13:00,28.2,11.9,30.37,East,83,1.0,1.0,50,0.00,,,0.00,Wunderground v.1.15,2013-01-13 00:13:00,
2013-01-12 16:19:00,28.0,12.2,30.37,East,83,0.0,1.0,51,0.00,,,0.00,Wunderground v.1.15,2013-01-13 00:19:00,
2013-01-12 16:26:00,27.6,11.8,30.37,East,83,0.0,1.0,51,0.00,,,0.00,Wunderground v.1.15,2013-01-13 00:26:00,
2013-01-12 16:32:00,27.4,12.5,30.38,East,83,0.0,0.0,53,0.00,,,0.00,Wunderground v.1.15,2013-01-13 00:32:00,
2013-01-12 16:37:00,26.9,12.5,30.38,East,83,0.0,1.0,54,0.00,,,0.00,Wunderground v.1.15,2013-01-13 00:37:00,
2013-01-12 16:44:00,26.2,12.2,30.38,East,83,0.0,0.0,55,0.00,,,0.00,Wunderground v.1.15,2013-01-13 00:44:00,
2013-01-12 16:50:00,25.7,12.6,30.38,East,83,0.0,0.0,57,0.00,,,0.00,Wunderground v.1.15,2013-01-13 00:50:00,
2013-01-12 16:55:00,25.1,12.4,30.39,East,83,0.0,2.0,58,0.00,,,0.00,Wunderground v.1.15,2013-01-13 00:55:00,
2013-01-12 17:01:00,24.5,12.6,30.39,East,83,0.0,0.0,60,0.00,,,0.00,Wunderground v.1.15,2013-01-13 01:01:00,
2013-01-12 17:08:00,24.2,12.7,30.39,East,83,0.0,0.0,61,0.00,,,0.00,Wunderground v.1.15,2013-01-13 01:08:00,
2013-01-12 17:14:00,23.8,12.3,30.39,East,83,0.0,0.0,61,0.00,,,0.00,Wunderground v.1.15,2013-01-13 01:14:00,
2013-01-12 17:19:00,23.5,12.7,30.39,East,83,0.0,0.0,63,0.00,,,0.00,Wunderground v.1.15,2013-01-13 01:19:00,
2013-01-12 17:26:00,23.1,12.4,30.39,East,83,0.0,0.0,63,0.00,,,0.00,Wunderground v.1.15,2013-01-13 01:26:00,
2013-01-12 17:32:00,22.8,12.8,30.40,East,83,0.0,0.0,65,0.00,,,0.00,Wunderground v.1.15,2013-01-13 01:32:00,
2013-01-12 17:38:00,22.4,12.4,30.39,East,83,0.0,0.0,65,0.00,,,0.00,Wunderground v.1.15,2013-01-13 01:38:00,
2013-01-12 17:43:00,22.1,12.1,30.39,East,83,0.0,0.0,65,0.00,,,0.00,Wunderground v.1.15,2013-01-13 01:43:00,
2013-01-12 17:49:00,21.8,11.8,30.39,East,83,0.0,0.0,65,0.00,,,0.00,Wunderground v.1.15,2013-01-13 01:49:00,
2013-01-12 17:56:00,21.5,12.2,30.39,East,83,0.0,0.0,67,0.00,,,0.00,Wunderground v.1.15,2013-01-13 01:56:00,
2013-01-12 18:02:00,21.3,12.0,30.39,East,83,0.0,0.0,67,0.00,,,0.00,Wunderground v.1.15,2013-01-13 02:02:00,
2013-01-12 18:08:00,21.2,11.9,30.39,East,83,0.0,0.0,67,0.00,,,0.00,Wunderground v.1.15,2013-01-13 02:08:00,
2013-01-12 18:13:00,21.1,12.2,30.39,East,83,0.0,0.0,68,0.00,,,0.00,Wunderground v.1.15,2013-01-13 02:13:00,
2013-01-12 18:19:00,21.0,12.1,30.39,East,83,0.0,0.0,68,0.00,,,0.00,Wunderground v.1.15,2013-01-13 02:19:00,
2013-01-12 18:26:00,21.0,12.4,30.39,East,83,0.0,0.0,69,0.00,,,0.00,Wunderground v.1.15,2013-01-13 02:26:00,
2013-01-12 18:32:00,21.2,12.9,30.39,East,83,0.0,0.0,70,0.00,,,0.00,Wunderground v.1.15,2013-01-13 02:32:00,
2013-01-12 18:37:00,21.3,13.0,30.39,East,83,0.0,1.0,70,0.00,,,0.00,Wunderground v.1.15,2013-01-13 02:37:00,
2013-01-12 18:44:00,21.2,12.9,30.39,East,83,0.0,0.0,70,0.00,,,0.00,Wunderground v.1.15,2013-01-13 02:44:00,
2013-01-12 18:50:00,20.9,12.6,30.39,East,83,0.0,0.0,70,0.00,,,0.00,Wunderground v.1.15,2013-01-13 02:50:00,
2013-01-12 18:56:00,20.7,12.5,30.39,East,83,0.0,1.0,70,0.00,,,0.00,Wunderground v.1.15,2013-01-13 02:56:00,
2013-01-12 19:01:00,20.4,12.5,30.39,East,83,0.0,0.0,71,0.00,,,0.00,Wunderground v.1.15,2013-01-13 03:01:00,
2013-01-12 19:07:00,19.8,11.9,30.40,East,83,0.0,0.0,71,0.00,,,0.00,Wunderground v.1.15,2013-01-13 03:07:00,
2013-01-12 19:14:00,19.0,11.8,30.40,East,83,0.0,0.0,73,0.00,,,0.00,Wunderground v.1.15,2013-01-13 03:14:00,
2013-01-12 19:20:00,18.2,11.3,30.41,East,83,0.0,1.0,74,0.00,,,0.00,Wunderground v.1.15,2013-01-13 03:20:00,
2013-01-12 19:25:00,17.9,11.3,30.40,East,83,0.0,0.0,75,0.00,,,0.00,Wunderground v.1.15,2013-01-13 03:25:00,
2013-01-12 19:32:00,17.5,11.2,30.41,East,83,0.0,0.0,76,0.00,,,0.00,Wunderground v.1.15,2013-01-13 03:32:00,
2013-01-12 19:38:00,17.3,11.6,30.41,East,83,0.0,0.0,78,0.00,,,0.00,Wunderground v.1.15,2013-01-13 03:38:00,
2013-01-12 19:43:00,17.2,11.2,30.42,East,83,0.0,0.0,77,0.00,,,0.00,Wunderground v.1.15,2013-01-13 03:43:00,
2013-01-12 19:49:00,17.1,11.1,30.42,East,83,0.0,0.0,77,0.00,,,0.00,Wunderground v.1.15,2013-01-13 03:49:00,
2013-01-12 19:56:00,16.9,10.9,30.42,East,83,0.0,0.0,77,0.00,,,0.00,Wunderground v.1.15,2013-01-13 03:56:00,
2013-01-12 20:02:00,16.5,10.8,30.42,East,83,0.0,0.0,78,0.00,,,0.00,Wunderground v.1.15,2013-01-13 04:02:00,
2013-01-12 20:07:00,16.2,10.8,30.43,East,83,0.0,0.0,79,0.00,,,0.00,Wunderground v.1.15,2013-01-13 04:07:00,
2013-01-12 20:14:00,16.2,10.8,30.42,East,83,0.0,0.0,79,0.00,,,0.00,Wunderground v.1.15,2013-01-13 04:14:00,
2013-01-12 20:20:00,16.2,10.8,30.42,East,83,0.0,1.0,79,0.00,,,0.00,Wunderground v.1.15,2013-01-13 04:20:00,
2013-01-12 20:25:00,15.9,10.5,30.42,East,83,0.0,0.0,79,0.00,,,0.00,Wunderground v.1.15,2013-01-13 04:25:00,
2013-01-12 20:31:00,15.7,10.6,30.42,East,83,0.0,0.0,80,0.00,,,0.00,Wunderground v.1.15,2013-01-13 04:31:00,
2013-01-12 20:38:00,15.0,10.2,30.42,East,83,0.0,1.0,81,0.00,,,0.00,Wunderground v.1.15,2013-01-13 04:38:00,
2013-01-12 20:44:00,14.5,10.0,30.43,East,83,1.0,1.0,82,0.00,,,0.00,Wunderground v.1.15,2013-01-13 04:44:00,
2013-01-12 20:49:00,14.3,10.1,30.43,East,83,0.0,1.0,83,0.00,,,0.00,Wunderground v.1.15,2013-01-13 04:49:00,
2013-01-12 20:56:00,14.1,9.6,30.43,East,83,0.0,1.0,82,0.00,,,0.00,Wunderground v.1.15,2013-01-13 04:56:00,
2013-01-12 21:04:00,13.9,9.1,30.43,East,83,0.0,1.0,81,0.00,,,0.00,Wunderground v.1.15,2013-01-13 05:04:00,
2013-01-12 21:06:00,13.8,9.0,30.43,East,83,0.0,1.0,81,0.00,,,0.00,Wunderground v.1.15,2013-01-13 05:06:00,
2013-01-12 21:09:00,13.7,9.0,30.43,East,83,0.0,1.0,81,0.00,,,0.00,Wunderground v.1.15,2013-01-13 05:09:00,
2013-01-12 21:15:00,13.4,8.7,30.43,East,83,0.0,1.0,81,0.00,,,0.00,Wunderground v.1.15,2013-01-13 05:15:00,
2013-01-12 21:22:00,13.2,8.7,30.43,East,83,0.0,0.0,82,0.00,,,0.00,Wunderground v.1.15,2013-01-13 05:22:00,
2013-01-12 21:28:00,13.1,8.6,30.42,East,83,0.0,1.0,82,0.00,,,0.00,Wunderground v.1.15,2013-01-13 05:28:00,
2013-01-12 21:33:00,12.8,8.3,30.43,East,83,0.0,1.0,82,0.00,,,0.00,Wunderground v.1.15,2013-01-13 05:33:00,
2013-01-12 21:40:00,12.7,8.5,30.43,East,83,0.0,1.0,83,0.00,,,0.00,Wunderground v.1.15,2013-01-13 05:40:00,
2013-01-12 21:46:00,12.8,8.6,30.43,East,83,0.0,0.0,83,0.00,,,0.00,Wunderground v.1.15,2013-01-13 05:46:00,
2013-01-12 21:51:00,12.6,8.1,30.43,East,83,0.0,0.0,82,0.00,,,0.00,Wunderground v.1.15,2013-01-13 05:51:00,
2013-01-12 21:57:00,12.3,7.9,30.43,East,83,0.0,0.0,82,0.00,,,0.00,Wunderground v.1.15,2013-01-13 05:57:00,
2013-01-12 22:03:00,11.9,7.7,30.43,East,83,0.0,1.0,83,0.00,,,0.00,Wunderground v.1.15,2013-01-13 06:03:00,
2013-01-12 22:10:00,11.7,7.5,30.43,East,83,0.0,1.0,83,0.00,,,0.00,Wunderground v.1.15,2013-01-13 06:10:00,
2013-01-12 22:16:00,11.7,7.8,30.43,East,83,0.0,0.0,84,0.00,,,0.00,Wunderground v.1.15,2013-01-13 06:16:00,
2013-01-12 22:22:00,11.6,7.4,30.44,East,83,1.0,1.0,83,0.00,,,0.00,Wunderground v.1.15,2013-01-13 06:22:00,
2013-01-12 22:28:00,11.5,7.3,30.44,East,83,1.0,3.0,83,0.00,,,0.00,Wunderground v.1.15,2013-01-13 06:28:00,
2013-01-12 22:34:00,11.3,7.4,30.44,East,83,1.0,1.0,84,0.00,,,0.00,Wunderground v.1.15,2013-01-13 06:34:00,
2013-01-12 22:40:00,11.2,7.6,30.44,East,83,0.0,1.0,85,0.00,,,0.00,Wunderground v.1.15,2013-01-13 06:40:00,
2013-01-12 22:46:00,11.1,7.2,30.45,East,83,1.0,2.0,84,0.00,,,0.00,Wunderground v.1.15,2013-01-13 06:46:00,
2013-01-12 22:52:00,11.0,7.4,30.45,East,83,1.0,1.0,85,0.00,,,0.00,Wunderground v.1.15,2013-01-13 06:52:00,
2013-01-12 22:58:00,11.0,7.4,30.45,East,83,0.0,2.0,85,0.00,,,0.00,Wunderground v.1.15,2013-01-13 06:58:00,
2013-01-12 23:04:00,10.9,7.3,30.45,East,83,0.0,0.0,85,0.00,,,0.00,Wunderground v.1.15,2013-01-13 07:04:00,
2013-01-12 23:10:00,10.7,7.1,30.45,East,83,0.0,1.0,85,0.00,,,0.00,Wunderground v.1.15,2013-01-13 07:10:00,
2013-01-12 23:16:00,10.6,6.7,30.45,East,83,1.0,3.0,84,0.00,,,0.00,Wunderground v.1.15,2013-01-13 07:16:00,
2013-01-12 23:22:00,10.5,6.6,30.44,East,83,2.0,2.0,84,0.00,,,0.00,Wunderground v.1.15,2013-01-13 07:22:00,
2013-01-12 23:28:00,10.3,6.4,30.44,East,83,3.0,3.0,84,0.00,,,0.00,Wunderground v.1.15,2013-01-13 07:28:00,
2013-01-12 23:34:00,10.1,6.5,30.44,East,83,3.0,3.0,85,0.00,,,0.00,Wunderground v.1.15,2013-01-13 07:34:00,
2013-01-12 23:40:00,10.0,6.4,30.44,East,83,2.0,3.0,85,0.00,,,0.00,Wunderground v.1.15,2013-01-13 07:40:00,
2013-01-12 23:46:00,9.9,6.6,30.44,East,83,1.0,2.0,86,0.00,,,0.00,Wunderground v.1.15,2013-01-13 07:46:00,
2013-01-12 23:52:00,9.9,6.6,30.44,East,83,0.0,0.0,86,0.00,,,0.00,Wunderground v.1.15,2013-01-13 07:52:00,
2013-01-12 23:58:00,9.9,6.6,30.44,East,83,0.0,1.0,86,0.00,,,0.00,Wunderground v.1.15,2013-01-13 07:58:00,